createdAt,value
2018-03-26T00:00:13.650Z,96756.00
2018-03-26T00:02:41.176Z,96752.80
2018-03-26T00:05:08.695Z,96754.70
2018-03-26T00:07:36.209Z,96754.70
2018-03-26T00:10:03.717Z,96745.09
2018-03-26T00:12:31.215Z,96747.70
2018-03-26T00:14:58.748Z,96748.89
2018-03-26T00:17:26.238Z,96749.25
2018-03-26T00:19:53.783Z,96752.53
2018-03-26T00:22:21.278Z,96755.99
2018-03-26T00:24:48.799Z,96752.27
2018-03-26T00:27:16.363Z,96748.05
2018-03-26T00:29:43.808Z,96757.02
2018-03-26T00:32:11.321Z,96755.73
2018-03-26T00:34:38.811Z,96757.55
2018-03-26T00:37:06.358Z,96755.05
2018-03-26T00:39:33.837Z,96753.91
2018-03-26T00:42:01.386Z,96752.39
2018-03-26T00:44:28.893Z,96754.78
2018-03-26T00:46:56.412Z,96760.31
2018-03-26T00:49:23.902Z,96759.69
2018-03-26T00:51:51.419Z,96762.20
2018-03-26T00:54:18.906Z,96758.52
2018-03-26T00:56:46.416Z,96763.67
2018-03-26T00:59:13.917Z,96769.55
2018-03-26T01:01:41.430Z,96766.02
2018-03-26T01:04:08.928Z,96765.89
2018-03-26T01:06:36.446Z,96759.14
2018-03-26T01:09:03.967Z,96757.52
2018-03-26T01:11:31.486Z,96761.51
2018-03-26T01:13:58.970Z,96756.77
2018-03-26T01:16:26.487Z,96769.80
2018-03-26T01:18:53.983Z,96767.59
2018-03-26T01:21:21.522Z,96768.44
2018-03-26T01:23:49.037Z,96772.13
2018-03-26T01:26:16.522Z,96771.13
2018-03-26T01:28:44.035Z,96776.08
2018-03-26T01:31:11.527Z,96773.06
2018-03-26T01:33:39.058Z,96777.00
2018-03-26T01:36:06.563Z,96780.06
2018-03-26T01:38:34.090Z,96777.37
2018-03-26T01:41:01.584Z,96776.58
2018-03-26T01:43:29.094Z,96767.47
2018-03-26T01:45:56.586Z,96772.11
2018-03-26T01:48:24.091Z,96769.69
2018-03-26T01:50:51.582Z,96775.58
2018-03-26T01:53:19.098Z,96770.39
2018-03-26T01:55:46.594Z,96775.27
2018-03-26T01:58:14.106Z,96773.18
2018-03-26T02:00:41.610Z,96776.50
2018-03-26T02:03:09.121Z,96779.38
2018-03-26T02:05:36.629Z,96782.44
2018-03-26T02:08:04.139Z,96771.14
2018-03-26T02:10:31.632Z,96779.24
2018-03-26T02:12:59.174Z,96779.51
2018-03-26T02:15:26.661Z,96774.41
2018-03-26T02:17:54.178Z,96774.58
2018-03-26T02:20:21.667Z,96771.16
2018-03-26T02:22:49.156Z,96772.96
2018-03-26T02:25:16.667Z,96778.27
2018-03-26T02:27:44.167Z,96778.01
2018-03-26T02:30:11.704Z,96777.96
2018-03-26T02:32:39.223Z,96777.11
2018-03-26T02:35:06.745Z,96785.67
2018-03-26T02:37:34.239Z,96781.17
2018-03-26T02:40:01.758Z,96789.77
2018-03-26T02:42:29.262Z,96785.91
2018-03-26T02:44:56.775Z,96780.83
2018-03-26T02:47:24.268Z,96791.59
2018-03-26T02:49:51.785Z,96793.16
2018-03-26T02:52:19.278Z,96791.20
2018-03-26T02:54:46.824Z,96789.11
2018-03-26T02:57:14.319Z,96793.69
2018-03-26T02:59:41.828Z,96788.16
2018-03-26T03:02:09.322Z,96796.18
2018-03-26T03:04:36.834Z,96787.09
2018-03-26T03:07:04.318Z,96786.47
2018-03-26T03:09:31.835Z,96791.83
2018-03-26T03:11:59.343Z,96789.34
2018-03-26T03:14:26.854Z,96790.59
2018-03-26T03:16:54.343Z,96790.06
2018-03-26T03:19:21.830Z,96793.17
2018-03-26T03:21:49.355Z,96795.45
2018-03-26T03:24:16.851Z,96792.05
2018-03-26T03:26:44.359Z,96800.34
2018-03-26T03:29:11.851Z,96812.77
2018-03-26T03:31:39.371Z,96801.99
2018-03-26T03:34:06.888Z,96804.70
2018-03-26T03:36:34.428Z,96808.51
2018-03-26T03:39:01.933Z,96809.43
2018-03-26T03:41:29.451Z,96803.49
2018-03-26T03:43:57.910Z,96813.77
2018-03-26T03:46:25.424Z,96812.77
2018-03-26T03:48:52.914Z,96817.41
2018-03-26T03:51:20.462Z,96832.14
2018-03-26T03:53:48.136Z,96827.52
2018-03-26T03:56:15.665Z,96827.33
2018-03-26T03:58:43.231Z,96830.94
2018-03-26T04:01:10.776Z,96829.66
2018-03-26T04:03:38.296Z,96829.14
2018-03-26T04:06:05.811Z,96834.85
2018-03-26T04:08:33.304Z,96830.84
2018-03-26T04:11:00.854Z,96837.64
2018-03-26T04:13:28.342Z,96839.55
2018-03-26T04:15:55.835Z,96837.09
2018-03-26T04:18:23.370Z,96833.70
2018-03-26T04:20:50.862Z,96832.02
2018-03-26T04:23:18.383Z,96834.50
2018-03-26T04:25:45.918Z,96836.69
2018-03-26T04:28:13.418Z,96844.28
2018-03-26T04:30:40.929Z,96859.05
2018-03-26T04:33:08.442Z,96858.20
2018-03-26T04:35:35.950Z,96857.24
2018-03-26T04:38:03.458Z,96866.16
2018-03-26T04:40:30.983Z,96860.11
2018-03-26T04:42:58.507Z,96856.84
2018-03-26T04:45:25.997Z,96864.58
2018-03-26T04:47:53.515Z,96872.62
2018-03-26T04:50:21.009Z,96872.92
2018-03-26T04:52:48.582Z,96880.13
2018-03-26T04:55:16.078Z,96885.81
2018-03-26T04:57:43.599Z,96897.75
2018-03-26T05:00:11.098Z,96872.28
2018-03-26T05:02:38.662Z,96889.60
2018-03-26T05:05:06.155Z,96888.33
2018-03-26T05:07:33.655Z,96880.21
2018-03-26T05:10:01.171Z,96877.64
2018-03-26T05:12:28.679Z,96879.33
2018-03-26T05:14:56.201Z,96884.86
2018-03-26T05:17:23.694Z,96891.19
2018-03-26T05:19:51.220Z,96901.23
2018-03-26T05:22:18.707Z,96886.97
2018-03-26T05:24:46.255Z,96896.16
2018-03-26T05:27:13.753Z,96898.41
2018-03-26T05:29:41.265Z,96892.67
2018-03-26T05:32:08.769Z,96885.14
2018-03-26T05:34:36.311Z,96886.69
2018-03-26T05:37:03.797Z,96890.96
2018-03-26T05:39:31.337Z,96890.73
2018-03-26T05:41:58.876Z,96898.36
2018-03-26T05:44:26.390Z,96896.41
2018-03-26T05:46:53.874Z,96893.63
2018-03-26T05:49:21.395Z,96898.72
2018-03-26T05:51:48.902Z,96900.36
2018-03-26T05:54:16.414Z,96905.39
2018-03-26T05:56:43.911Z,96918.64
2018-03-26T05:59:11.432Z,96917.81
2018-03-26T06:01:38.965Z,96918.00
2018-03-26T06:04:06.454Z,96927.21
2018-03-26T06:06:33.966Z,96936.02
2018-03-26T06:09:01.473Z,96931.46
2018-03-26T06:11:29.033Z,96937.14
2018-03-26T06:13:56.532Z,96938.02
2018-03-26T06:16:24.044Z,96942.41
2018-03-26T06:18:51.554Z,96941.62
2018-03-26T06:21:19.079Z,96940.19
2018-03-26T06:23:47.398Z,96941.71
2018-03-26T06:26:15.002Z,96937.98
2018-03-26T06:28:42.501Z,96943.53
2018-03-26T06:31:10.107Z,96941.62
2018-03-26T06:33:37.615Z,96936.07
2018-03-26T06:36:06.669Z,96939.88
2018-03-26T06:38:39.662Z,96937.35
2018-03-26T06:41:07.193Z,96938.91
2018-03-26T06:43:34.680Z,96959.17
2018-03-26T06:46:02.203Z,96957.16
2018-03-26T06:48:29.700Z,96960.44
2018-03-26T06:50:57.224Z,96955.36
2018-03-26T06:53:24.753Z,96952.60
2018-03-26T06:55:52.308Z,96950.30
2018-03-26T06:58:19.819Z,96951.80
2018-03-26T07:00:47.319Z,96948.80
2018-03-26T07:03:14.883Z,96943.39
2018-03-26T07:05:42.382Z,96948.16
2018-03-26T07:08:09.901Z,96948.41
2018-03-26T07:10:37.403Z,96939.42
2018-03-26T07:13:04.919Z,96945.47
2018-03-26T07:15:32.483Z,96955.38
2018-03-26T07:17:59.990Z,96954.78
2018-03-26T07:20:27.488Z,96964.66
2018-03-26T07:22:55.006Z,96966.79
2018-03-26T07:25:22.503Z,96977.20
2018-03-26T07:27:50.032Z,96983.61
2018-03-26T07:30:17.522Z,96969.33
2018-03-26T07:32:45.047Z,96968.45
2018-03-26T07:35:12.557Z,96973.65
2018-03-26T07:37:40.072Z,96981.02
2018-03-26T07:40:07.680Z,96990.75
2018-03-26T07:42:35.205Z,96993.89
2018-03-26T07:45:02.691Z,96988.93
2018-03-26T07:47:30.206Z,96987.45
2018-03-26T07:49:57.700Z,96983.78
2018-03-26T07:52:25.233Z,96987.02
2018-03-26T07:54:52.722Z,96993.17
2018-03-26T07:57:20.231Z,96992.17
2018-03-26T07:59:47.751Z,96994.52
2018-03-26T08:02:15.275Z,96997.94
2018-03-26T08:04:42.894Z,97000.72
2018-03-26T08:07:10.386Z,97001.90
2018-03-26T08:09:37.903Z,96994.79
2018-03-26T08:12:05.393Z,97005.33
2018-03-26T08:14:32.925Z,97007.45
2018-03-26T08:17:00.476Z,97012.81
2018-03-26T08:19:27.963Z,97009.94
2018-03-26T08:21:56.158Z,97021.09
2018-03-26T08:24:23.679Z,97021.27
2018-03-26T08:26:51.174Z,97016.92
2018-03-26T08:29:18.694Z,97017.18
2018-03-26T08:31:46.197Z,97012.99
2018-03-26T08:34:13.715Z,97018.11
2018-03-26T08:36:41.202Z,97026.77
2018-03-26T08:39:08.738Z,97026.91
2018-03-26T08:41:36.280Z,97018.55
2018-03-26T08:44:03.794Z,97027.38
2018-03-26T08:46:31.306Z,97026.45
2018-03-26T08:48:58.872Z,97033.34
2018-03-26T08:51:26.371Z,97026.83
2018-03-26T08:53:53.866Z,97030.22
2018-03-26T08:56:21.399Z,97033.83
2018-03-26T08:58:48.929Z,97039.79
2018-03-26T09:01:16.476Z,97041.56
2018-03-26T09:03:43.998Z,97039.58
2018-03-26T09:06:11.528Z,97039.16
2018-03-26T09:08:39.028Z,97040.41
2018-03-26T09:11:06.578Z,97044.20
2018-03-26T09:13:34.096Z,97045.72
2018-03-26T09:16:01.647Z,97040.72
2018-03-26T09:18:29.142Z,97044.27
2018-03-26T09:20:56.674Z,97045.16
2018-03-26T09:23:24.166Z,97040.55
2018-03-26T09:25:51.729Z,97036.13
2018-03-26T09:28:19.198Z,97033.47
2018-03-26T09:30:46.753Z,97043.56
2018-03-26T09:33:14.268Z,97044.30
2018-03-26T09:35:41.781Z,97046.31
2018-03-26T09:38:09.285Z,97046.69
2018-03-26T09:40:36.807Z,97047.92
2018-03-26T09:43:04.320Z,97046.59
2018-03-26T09:45:31.818Z,97049.15
2018-03-26T09:47:59.346Z,97052.04
2018-03-26T09:50:26.851Z,97055.06
2018-03-26T09:52:54.394Z,97056.19
2018-03-26T09:55:21.891Z,97061.28
2018-03-26T09:57:49.416Z,97069.20
2018-03-26T10:00:17.849Z,97066.78
2018-03-26T10:02:45.378Z,97068.86
2018-03-26T10:05:13.718Z,97069.80
2018-03-26T10:07:41.260Z,97067.91
2018-03-26T10:10:08.754Z,97072.60
2018-03-26T10:12:36.279Z,97076.66
2018-03-26T10:15:03.778Z,97072.38
2018-03-26T10:17:31.294Z,97068.22
2018-03-26T10:19:58.788Z,97078.41
2018-03-26T10:22:26.320Z,97072.02
2018-03-26T10:24:53.819Z,97067.69
2018-03-26T10:27:21.338Z,97070.30
2018-03-26T10:29:48.847Z,97060.33
2018-03-26T10:32:16.390Z,97066.84
2018-03-26T10:34:43.926Z,97071.31
2018-03-26T10:37:11.616Z,97070.81
2018-03-26T10:39:39.146Z,97072.49
2018-03-26T10:42:06.658Z,97073.66
2018-03-26T10:44:34.174Z,97076.14
2018-03-26T10:47:01.683Z,97077.40
2018-03-26T10:49:29.230Z,97075.85
2018-03-26T10:51:56.747Z,97076.09
2018-03-26T10:54:24.357Z,97084.09
2018-03-26T10:56:51.877Z,97079.45
2018-03-26T10:59:19.514Z,97090.00
2018-03-26T11:01:48.144Z,97080.28
2018-03-26T11:04:15.696Z,97078.77
2018-03-26T11:06:43.382Z,97083.38
2018-03-26T11:09:10.949Z,97078.85
2018-03-26T11:11:38.493Z,97078.74
2018-03-26T11:14:06.107Z,97092.63
2018-03-26T11:16:33.623Z,97091.51
2018-03-26T11:19:01.318Z,97093.67
2018-03-26T11:21:28.809Z,97098.19
2018-03-26T11:23:57.196Z,97081.83
2018-03-26T11:26:24.827Z,97098.77
2018-03-26T11:28:52.372Z,97097.67
2018-03-26T11:31:19.966Z,97101.16
2018-03-26T11:33:47.484Z,97100.41
2018-03-26T11:36:16.087Z,97099.42
2018-03-26T11:38:43.710Z,97091.78
2018-03-26T11:41:11.228Z,97092.98
2018-03-26T11:43:38.742Z,97099.91
2018-03-26T11:46:06.356Z,97097.80
2018-03-26T11:48:33.865Z,97099.09
2018-03-26T11:51:01.581Z,97092.89
2018-03-26T11:53:29.090Z,97108.37
2018-03-26T11:55:56.621Z,97112.45
2018-03-26T11:58:24.246Z,97109.75
2018-03-26T12:00:51.794Z,97111.76
2018-03-26T12:03:19.428Z,97115.75
2018-03-26T12:05:46.947Z,97113.36
2018-03-26T12:08:14.451Z,97101.81
2018-03-26T12:10:41.969Z,97101.52
2018-03-26T12:13:09.490Z,97105.92
2018-03-26T12:15:37.167Z,97104.11
2018-03-26T12:18:04.793Z,97103.05
2018-03-26T12:20:44.026Z,97102.08
2018-03-26T12:23:23.580Z,97107.89
2018-03-26T12:25:51.136Z,97111.90
2018-03-26T12:28:30.411Z,97105.42
2018-03-26T12:30:58.203Z,97104.52
2018-03-26T12:33:25.731Z,97105.40
2018-03-26T12:35:55.717Z,97116.28
2018-03-26T12:38:23.294Z,97112.67
2018-03-26T12:40:51.513Z,97107.06
2018-03-26T12:43:19.073Z,97110.62
2018-03-26T12:48:47.529Z,97103.48
2018-03-26T12:51:26.887Z,97108.36
2018-03-26T12:53:54.410Z,97104.06
2018-03-26T12:56:22.102Z,97113.59
2018-03-26T12:58:49.666Z,97112.99
2018-03-26T13:01:29.032Z,97114.55
2018-03-26T13:03:56.831Z,97117.06
2018-03-26T13:06:24.469Z,97117.72
2018-03-26T13:08:51.987Z,97114.18
2018-03-26T13:11:19.486Z,97113.17
2018-03-26T13:13:48.052Z,97112.86
2018-03-26T13:16:15.652Z,97117.42
2018-03-26T13:18:43.216Z,97122.09
2018-03-26T13:21:10.701Z,97127.97
2018-03-26T13:23:38.554Z,97129.80
2018-03-26T13:26:06.091Z,97125.20
2018-03-26T13:28:33.618Z,97124.03
2018-03-26T13:31:01.292Z,97127.97
2018-03-26T13:33:28.846Z,97126.55
2018-03-26T13:35:56.332Z,97133.79
2018-03-26T13:38:24.135Z,97131.62
2018-03-26T13:40:51.623Z,97130.65
2018-03-26T13:43:19.117Z,97136.57
2018-03-26T13:45:46.630Z,97129.77
2018-03-26T13:48:14.279Z,97130.64
2018-03-26T13:50:41.824Z,97129.15
2018-03-26T13:53:09.310Z,97137.92
2018-03-26T13:55:36.836Z,97140.53
2018-03-26T13:58:04.327Z,97141.42
2018-03-26T14:00:31.848Z,97142.63
2018-03-26T14:02:59.347Z,97141.36
2018-03-26T14:05:26.878Z,97142.42
2018-03-26T14:07:54.370Z,97141.50
2018-03-26T14:13:52.229Z,97144.14
2018-03-26T14:16:31.422Z,97138.27
2018-03-26T14:18:58.915Z,97137.64
2018-03-26T14:21:26.422Z,97142.39
2018-03-26T14:23:53.923Z,97145.66
2018-03-26T14:26:21.439Z,97149.95
2018-03-26T14:28:48.939Z,97150.23
2018-03-26T14:31:16.458Z,97153.19
2018-03-26T14:33:43.952Z,97146.99
2018-03-26T14:36:11.477Z,97147.05
2018-03-26T14:38:38.995Z,97150.94
2018-03-26T14:41:06.512Z,97142.78
2018-03-26T14:43:34.007Z,97147.00
2018-03-26T14:46:01.535Z,97141.61
2018-03-26T14:48:29.031Z,97143.13
2018-03-26T14:50:56.553Z,97147.17
2018-03-26T14:53:24.070Z,97150.99
2018-03-26T14:55:51.564Z,97155.88
2018-03-26T14:58:19.083Z,97155.52
2018-03-26T15:00:46.598Z,97160.38
2018-03-26T15:03:14.111Z,97160.55
2018-03-26T15:05:41.625Z,97162.91
2018-03-26T15:08:09.133Z,97166.53
2018-03-26T15:10:36.638Z,97164.70
2018-03-26T15:13:04.200Z,97168.03
2018-03-26T15:15:31.691Z,97175.20
2018-03-26T15:17:59.211Z,97169.05
2018-03-26T15:20:26.739Z,97180.60
2018-03-26T15:22:54.250Z,97175.64
2018-03-26T15:25:21.737Z,97180.73
2018-03-26T15:27:49.248Z,97180.59
2018-03-26T15:30:16.735Z,97178.18
2018-03-26T15:32:44.249Z,97180.39
2018-03-26T15:35:11.743Z,97177.34
2018-03-26T15:37:39.262Z,97177.08
2018-03-26T15:40:06.759Z,97181.45
2018-03-26T15:42:34.287Z,97182.91
2018-03-26T15:45:01.776Z,97185.18
2018-03-26T15:47:29.279Z,97180.77
2018-03-26T15:49:56.789Z,97186.02
2018-03-26T15:52:24.283Z,97179.61
2018-03-26T15:54:51.808Z,97179.88
2018-03-26T15:57:19.302Z,97179.88
2018-03-26T15:59:46.824Z,97177.73
2018-03-26T16:02:13.772Z,97183.67
2018-03-26T16:04:41.320Z,97186.05
2018-03-26T16:07:08.830Z,97180.78
2018-03-26T16:09:36.343Z,97188.78
2018-03-26T16:12:03.835Z,97184.23
2018-03-26T16:14:31.357Z,97196.97
2018-03-26T16:16:58.873Z,97198.47
2018-03-26T16:19:26.388Z,97200.39
2018-03-26T16:21:53.870Z,97201.31
2018-03-26T16:24:21.353Z,97200.74
2018-03-26T16:26:48.858Z,97203.64
2018-03-26T16:29:16.348Z,97207.84
2018-03-26T16:31:43.861Z,97209.86
2018-03-26T16:34:11.353Z,97213.63
2018-03-26T16:36:38.903Z,97221.34
2018-03-26T16:39:06.399Z,97217.28
2018-03-26T16:41:45.698Z,97221.17
2018-03-26T16:44:13.186Z,97221.33
2018-03-26T16:46:40.699Z,97222.20
2018-03-26T16:49:08.198Z,97227.61
2018-03-26T16:51:35.715Z,97220.58
2018-03-26T16:54:03.198Z,97228.78
2018-03-26T16:56:30.705Z,97227.47
2018-03-26T16:58:58.204Z,97236.39
2018-03-26T17:01:25.723Z,97233.67
2018-03-26T17:03:53.247Z,97237.32
2018-03-26T17:06:20.777Z,97239.61
2018-03-26T17:08:48.264Z,97242.45
2018-03-26T17:11:15.810Z,97242.34
2018-03-26T17:13:43.299Z,97247.69
2018-03-26T17:16:10.898Z,97239.83
2018-03-26T17:18:38.410Z,97248.84
2018-03-26T17:21:05.925Z,97250.31
2018-03-26T17:23:33.406Z,97254.42
2018-03-26T17:26:00.895Z,97255.89
2018-03-26T17:28:28.420Z,97259.52
2018-03-26T17:30:55.905Z,97213.91
2018-03-26T17:33:23.405Z,97260.53
2018-03-26T17:35:51.000Z,97264.78
2018-03-26T17:38:18.519Z,97264.97
2018-03-26T17:40:46.002Z,97272.96
2018-03-26T17:43:13.506Z,97275.41
2018-03-26T17:45:41.018Z,97276.27
2018-03-26T17:48:08.563Z,97282.18
2018-03-26T17:50:36.106Z,97280.43
2018-03-26T17:53:03.616Z,97274.43
2018-03-26T17:55:31.100Z,97283.48
2018-03-26T17:57:58.638Z,97292.00
2018-03-26T18:00:26.122Z,97290.15
2018-03-26T18:02:53.634Z,97292.74
2018-03-26T18:05:21.126Z,97299.12
2018-03-26T18:07:48.707Z,97297.83
2018-03-26T18:10:16.251Z,97302.92
2018-03-26T18:12:43.722Z,97310.59
2018-03-26T18:15:11.202Z,97303.50
2018-03-26T18:17:38.718Z,97314.55
2018-03-26T18:20:06.301Z,97302.98
2018-03-26T18:22:33.791Z,97308.27
2018-03-26T18:25:01.335Z,97298.80
2018-03-26T18:27:28.826Z,97313.07
2018-03-26T18:29:56.345Z,97315.50
2018-03-26T18:32:23.830Z,97310.78
2018-03-26T18:34:51.359Z,97310.90
2018-03-26T18:37:18.849Z,97313.16
2018-03-26T18:39:46.358Z,97318.03
2018-03-26T18:42:13.838Z,97318.77
2018-03-26T18:44:41.349Z,97331.22
2018-03-26T18:47:08.846Z,97332.34
2018-03-26T18:49:36.372Z,97313.02
2018-03-26T18:52:04.650Z,97338.16
2018-03-26T18:54:32.160Z,97340.24
2018-03-26T18:56:59.720Z,97347.05
2018-03-26T18:59:27.195Z,97341.00
2018-03-26T19:01:54.677Z,97337.05
2018-03-26T19:04:22.188Z,97339.38
2018-03-26T19:06:49.670Z,97339.70
2018-03-26T19:09:17.200Z,97339.90
2018-03-26T19:11:44.686Z,97345.78
2018-03-26T19:14:12.235Z,97349.81
2018-03-26T19:16:39.781Z,97348.07
2018-03-26T19:19:07.266Z,97350.16
2018-03-26T19:21:34.783Z,97346.84
2018-03-26T19:24:02.299Z,97351.21
2018-03-26T19:26:29.818Z,97352.26
2018-03-26T19:28:57.348Z,97358.73
2018-03-26T19:31:24.870Z,97353.26
2018-03-26T19:33:52.413Z,97360.38
2018-03-26T19:36:19.918Z,97363.33
2018-03-26T19:38:47.399Z,97365.73
2018-03-26T19:41:14.917Z,97371.04
2018-03-26T19:43:42.401Z,97372.73
2018-03-26T19:46:09.916Z,97371.04
2018-03-26T19:48:37.417Z,97372.55
2018-03-26T19:51:04.930Z,97377.66
2018-03-26T19:53:32.414Z,97380.11
2018-03-26T19:55:59.929Z,97378.99
2018-03-26T19:58:27.435Z,97385.16
2018-03-26T20:00:54.959Z,97376.60
2018-03-26T20:03:22.444Z,97386.22
2018-03-26T20:05:49.967Z,97378.84
2018-03-26T20:08:17.456Z,97385.66
2018-03-26T20:10:45.001Z,97380.84
2018-03-26T20:13:12.475Z,97385.53
2018-03-26T20:15:39.960Z,97389.08
2018-03-26T20:18:07.463Z,97390.32
2018-03-26T20:20:34.944Z,97387.55
2018-03-26T20:23:02.511Z,97393.03
2018-03-26T20:25:30.000Z,97392.91
2018-03-26T20:27:57.511Z,97389.96
2018-03-26T20:30:24.993Z,97392.08
2018-03-26T20:32:52.499Z,97395.38
2018-03-26T20:35:19.992Z,97388.02
2018-03-26T20:37:47.495Z,97391.31
2018-03-26T20:40:14.994Z,97394.58
2018-03-26T20:42:42.506Z,97395.02
2018-03-26T20:45:09.990Z,97390.66
2018-03-26T20:47:37.506Z,97392.39
2018-03-26T20:50:04.995Z,97385.66
2018-03-26T20:52:32.510Z,97383.89
2018-03-26T20:55:00.002Z,97186.73
2018-03-26T20:57:27.522Z,97393.83
2018-03-26T20:59:55.008Z,97389.96
2018-03-26T21:02:22.524Z,97387.02
2018-03-26T21:04:50.015Z,97394.02
2018-03-26T21:07:17.526Z,97389.58
2018-03-26T21:09:45.010Z,97394.30
2018-03-26T21:12:12.495Z,97397.43
2018-03-26T21:14:40.002Z,97394.05
2018-03-26T21:17:07.511Z,97386.27
2018-03-26T21:19:35.092Z,97385.52
2018-03-26T21:22:02.626Z,97389.69
2018-03-26T21:24:30.200Z,97393.36
2018-03-26T21:26:57.701Z,97389.80
2018-03-26T21:29:25.236Z,97395.96
2018-03-26T21:31:54.602Z,97389.23
2018-03-26T21:34:22.285Z,97390.35
2018-03-26T21:36:49.819Z,97419.05
2018-03-26T21:39:17.339Z,97388.91
2018-03-26T21:41:44.847Z,97389.47
2018-03-26T21:44:12.372Z,97391.28
2018-03-26T21:46:39.889Z,97384.28
2018-03-26T21:49:07.522Z,97386.52
2018-03-26T21:51:35.008Z,97383.41
2018-03-26T21:54:02.528Z,97377.91
2018-03-26T21:56:30.049Z,97380.30
2018-03-26T21:58:57.575Z,97379.05
2018-03-26T22:01:25.154Z,97383.59
2018-03-26T22:03:52.678Z,97389.08
2018-03-26T22:06:20.194Z,97390.62
2018-03-26T22:08:47.748Z,97400.19
2018-03-26T22:11:15.300Z,97397.97
2018-03-26T22:13:42.791Z,97395.20
2018-03-26T22:16:10.303Z,97396.00
2018-03-26T22:18:37.849Z,97395.34
2018-03-26T22:21:05.371Z,97396.66
2018-03-26T22:23:32.874Z,97392.05
2018-03-26T22:26:00.398Z,97391.89
2018-03-26T22:28:28.997Z,97392.33
2018-03-26T22:30:56.512Z,97386.54
2018-03-26T22:33:24.034Z,97392.42
2018-03-26T22:35:51.601Z,97391.77
2018-03-26T22:38:19.175Z,97389.41
2018-03-26T22:40:46.691Z,97389.77
2018-03-26T22:43:14.196Z,97389.06
2018-03-26T22:45:41.798Z,97389.02
2018-03-26T22:48:09.341Z,97388.36
2018-03-26T22:50:36.859Z,97386.98
2018-03-26T22:53:04.377Z,97390.59
2018-03-26T22:55:31.905Z,97389.40
2018-03-26T22:57:59.409Z,97381.39
2018-03-26T23:00:26.914Z,97383.94
2018-03-26T23:02:54.437Z,97387.23
2018-03-26T23:05:21.965Z,97382.79
2018-03-26T23:07:49.480Z,97383.42
2018-03-26T23:10:16.978Z,97381.23
2018-03-26T23:12:44.523Z,97380.36
2018-03-26T23:15:12.011Z,97381.55
2018-03-26T23:17:39.589Z,97386.18
2018-03-26T23:20:07.107Z,97385.47
2018-03-26T23:22:46.437Z,97386.77
2018-03-26T23:25:13.928Z,97383.27
2018-03-26T23:27:41.459Z,97388.39
2018-03-26T23:30:08.966Z,97388.39
2018-03-26T23:32:36.528Z,97385.36
2018-03-26T23:35:04.038Z,97383.05
2018-03-26T23:37:31.565Z,97382.64
2018-03-26T23:39:59.074Z,97385.58
2018-03-26T23:42:26.626Z,97386.11
2018-03-26T23:44:54.160Z,97382.90
2018-03-26T23:47:21.705Z,97386.59
2018-03-26T23:49:49.216Z,97387.83
2018-03-26T23:52:16.744Z,97387.47
2018-03-26T23:54:44.356Z,97389.50
2018-03-26T23:57:11.890Z,97392.08
2018-03-26T23:59:39.420Z,97400.21
